createdAt,value
2018-09-12T00:01:34.606Z,81.96
2018-09-12T00:04:02.888Z,81.96
2018-09-12T00:06:31.843Z,81.34
2018-09-12T00:09:00.365Z,81.66
2018-09-12T00:11:28.778Z,81.07
2018-09-12T00:13:57.268Z,79.98
2018-09-12T00:16:25.918Z,80.04
2018-09-12T00:18:54.202Z,80.45
2018-09-12T00:21:22.476Z,81.12
2018-09-12T00:23:50.915Z,80.98
2018-09-12T00:26:19.233Z,80.14
2018-09-12T00:28:48.497Z,79.93
2018-09-12T00:31:16.784Z,81.13
2018-09-12T00:33:45.451Z,81.80
2018-09-12T00:36:15.202Z,81.85
2018-09-12T00:38:44.345Z,82.54
2018-09-12T00:41:13.158Z,83.32
2018-09-12T00:43:41.409Z,84.82
2018-09-12T00:46:09.688Z,84.26
2018-09-12T00:48:37.934Z,83.31
2018-09-12T00:51:06.434Z,85.70
2018-09-12T00:53:34.936Z,86.65
2018-09-12T00:56:03.481Z,87.63
2018-09-12T00:58:31.802Z,86.28
2018-09-12T01:01:00.107Z,88.55
2018-09-12T01:03:28.355Z,89.74
2018-09-12T01:05:56.845Z,87.57
2018-09-12T01:08:25.399Z,87.36
2018-09-12T01:10:53.740Z,88.86
2018-09-12T01:13:22.218Z,87.43
2018-09-12T01:15:50.589Z,86.36
2018-09-12T01:18:20.354Z,87.80
2018-09-12T01:20:50.051Z,88.17
2018-09-12T01:23:18.644Z,91.40
2018-09-12T01:25:47.327Z,91.24
2018-09-12T01:28:15.625Z,90.39
2018-09-12T01:30:44.227Z,86.95
2018-09-12T01:33:12.498Z,86.56
2018-09-12T01:35:40.801Z,88.45
2018-09-12T01:38:09.050Z,88.91
2018-09-12T01:40:38.645Z,88.05
2018-09-12T01:43:06.934Z,87.01
2018-09-12T01:45:37.660Z,88.14
2018-09-12T01:48:05.912Z,88.39
2018-09-12T01:50:34.194Z,87.79
2018-09-12T01:53:02.758Z,90.17
2018-09-12T01:55:31.049Z,88.59
2018-09-12T01:57:59.463Z,86.97
2018-09-12T02:00:33.181Z,85.48
2018-09-12T02:03:01.436Z,86.79
2018-09-12T02:05:29.844Z,87.10
2018-09-12T02:07:58.388Z,85.79
2018-09-12T02:10:26.680Z,90.48
2018-09-12T02:12:55.170Z,86.16
2018-09-12T02:15:23.698Z,89.90
2018-09-12T02:17:51.993Z,90.04
2018-09-12T02:20:20.321Z,86.56
2018-09-12T02:22:48.611Z,87.97
2018-09-12T02:25:17.075Z,88.22
2018-09-12T02:27:46.359Z,93.35
2018-09-12T02:30:14.663Z,91.08
2018-09-12T02:32:43.057Z,90.08
2018-09-12T02:35:18.046Z,89.64
2018-09-12T02:37:46.288Z,87.90
2018-09-12T02:40:16.417Z,91.60
2018-09-12T02:42:45.816Z,90.67
2018-09-12T02:45:14.113Z,91.40
2018-09-12T02:47:42.581Z,88.49
2018-09-12T02:50:12.684Z,88.63
2018-09-12T02:52:41.490Z,89.70
2018-09-12T02:55:11.570Z,91.14
2018-09-12T02:57:39.822Z,89.63
2018-09-12T03:00:08.649Z,91.80
2018-09-12T03:02:37.016Z,92.46
2018-09-12T03:05:05.623Z,91.49
2018-09-12T03:07:33.973Z,93.21
2018-09-12T03:10:02.416Z,88.28
2018-09-12T03:12:30.742Z,89.62
2018-09-12T03:14:58.982Z,85.81
2018-09-12T03:17:27.278Z,87.48
2018-09-12T03:19:55.520Z,86.59
2018-09-12T03:22:23.947Z,91.41
2018-09-12T03:24:52.264Z,90.60
2018-09-12T03:27:20.592Z,90.58
2018-09-12T03:29:48.873Z,91.01
2018-09-12T03:32:17.525Z,90.60
2018-09-12T03:34:45.963Z,86.48
2018-09-12T03:37:14.271Z,85.44
2018-09-12T03:39:42.998Z,84.23
2018-09-12T03:42:27.849Z,84.93
2018-09-12T03:44:56.502Z,95.13
2018-09-12T03:47:24.993Z,84.75
2018-09-12T03:49:53.257Z,86.14
2018-09-12T03:52:23.096Z,89.14
2018-09-12T03:54:51.532Z,91.95
2018-09-12T03:57:19.832Z,85.67
2018-09-12T03:59:48.571Z,86.54
2018-09-12T04:05:13.463Z,84.36
2018-09-12T04:07:42.711Z,85.06
2018-09-12T04:10:11.921Z,92.14
2018-09-12T04:12:41.103Z,92.58
2018-09-12T04:15:10.330Z,89.38
2018-09-12T04:17:39.594Z,89.79
2018-09-12T04:20:08.819Z,90.57
2018-09-12T04:22:37.984Z,91.50
2018-09-12T04:25:07.730Z,89.87
2018-09-12T04:27:36.882Z,90.12
2018-09-12T04:30:06.535Z,91.98
2018-09-12T04:32:35.912Z,92.55
2018-09-12T04:35:04.858Z,91.31
2018-09-12T04:37:34.089Z,89.43
2018-09-12T04:40:03.420Z,88.54
2018-09-12T04:42:32.636Z,87.51
2018-09-12T04:45:01.796Z,91.13
2018-09-12T04:47:31.106Z,94.01
2018-09-12T04:50:00.312Z,92.77
2018-09-12T04:52:29.514Z,94.59
2018-09-12T04:54:58.986Z,92.80
2018-09-12T04:57:28.318Z,93.43
2018-09-12T04:59:57.503Z,93.18
2018-09-12T05:02:26.714Z,94.30
2018-09-12T05:04:55.916Z,95.43
2018-09-12T05:07:25.209Z,93.71
2018-09-12T05:09:54.387Z,93.20
2018-09-12T05:12:23.630Z,92.17
2018-09-12T05:14:52.790Z,93.41
2018-09-12T05:17:22.002Z,92.14
2018-09-12T05:19:51.082Z,90.72
2018-09-12T05:22:20.399Z,89.82
2018-09-12T05:24:50.138Z,90.80
2018-09-12T05:27:19.426Z,89.72
2018-09-12T05:29:48.870Z,88.88
2018-09-12T05:32:18.011Z,88.67
2018-09-12T05:34:47.080Z,88.43
2018-09-12T05:37:16.408Z,86.00
2018-09-12T05:39:45.674Z,86.48
2018-09-12T05:42:14.930Z,85.42
2018-09-12T05:44:44.374Z,84.27
2018-09-12T05:47:13.614Z,83.02
2018-09-12T05:49:42.768Z,79.63
2018-09-12T05:52:12.282Z,79.29
2018-09-12T05:54:41.470Z,79.45
2018-09-12T05:57:10.734Z,77.49
2018-09-12T06:00:43.062Z,77.77
2018-09-12T06:03:13.010Z,77.02
2018-09-12T06:05:42.067Z,76.18
2018-09-12T06:08:11.554Z,74.42
2018-09-12T06:10:40.811Z,73.61
2018-09-12T06:13:09.990Z,72.62
2018-09-12T06:15:39.234Z,71.93
2018-09-12T06:18:08.574Z,71.49
2018-09-12T06:20:37.762Z,71.55
2018-09-12T06:23:06.933Z,71.23
2018-09-12T06:25:36.581Z,70.45
2018-09-12T06:28:05.749Z,70.34
2018-09-12T06:30:35.092Z,69.29
2018-09-12T06:33:04.183Z,69.20
2018-09-12T06:35:33.395Z,68.15
2018-09-12T06:38:02.573Z,67.41
2018-09-12T06:40:32.084Z,66.52
2018-09-12T06:43:01.273Z,65.93
2018-09-12T06:45:30.392Z,64.30
2018-09-12T06:47:59.767Z,64.40
2018-09-12T06:50:28.983Z,63.07
2018-09-12T06:52:58.162Z,63.37
2018-09-12T06:55:27.406Z,62.57
2018-09-12T06:57:56.467Z,61.26
2018-09-12T07:00:25.869Z,61.71
2018-09-12T07:02:55.140Z,61.11
2018-09-12T07:05:24.379Z,60.80
2018-09-12T07:07:53.644Z,61.19
2018-09-12T07:10:23.162Z,60.19
2018-09-12T07:12:52.114Z,59.46
2018-09-12T07:15:21.263Z,58.57
2018-09-12T07:17:50.455Z,58.54
2018-09-12T07:20:19.675Z,59.72
2018-09-12T07:22:48.922Z,58.58
2018-09-12T07:25:18.176Z,58.31
2018-09-12T07:27:47.326Z,57.70
2018-09-12T07:30:16.353Z,57.24
2018-09-12T07:32:45.510Z,57.84
2018-09-12T07:35:14.653Z,56.63
2018-09-12T07:37:43.951Z,57.11
2018-09-12T07:40:13.140Z,56.10
2018-09-12T07:42:42.299Z,56.27
2018-09-12T07:45:11.820Z,56.27
2018-09-12T07:47:41.027Z,55.85
2018-09-12T07:50:10.034Z,56.01
2018-09-12T07:52:39.202Z,56.07
2018-09-12T07:55:08.645Z,56.27
2018-09-12T07:57:37.799Z,56.37
2018-09-12T08:00:07.390Z,56.55
2018-09-12T08:02:36.728Z,55.89
2018-09-12T08:05:06.134Z,54.96
2018-09-12T08:07:35.230Z,55.29
2018-09-12T08:10:04.241Z,55.48
2018-09-12T08:12:33.285Z,54.69
2018-09-12T08:15:02.421Z,54.35
2018-09-12T08:17:31.742Z,53.74
2018-09-12T08:20:00.770Z,52.97
2018-09-12T08:22:29.946Z,52.75
2018-09-12T08:24:59.223Z,52.42
2018-09-12T08:27:28.430Z,52.10
2018-09-12T08:29:57.590Z,52.43
2018-09-12T08:32:26.922Z,51.72
2018-09-12T08:34:56.386Z,53.02
2018-09-12T08:37:26.088Z,53.07
2018-09-12T08:39:55.388Z,52.81
2018-09-12T08:42:24.523Z,53.36
2018-09-12T08:44:53.683Z,53.61
2018-09-12T08:47:22.820Z,54.30
2018-09-12T08:49:52.370Z,53.08
2018-09-12T08:52:21.735Z,53.05
2018-09-12T08:54:51.114Z,54.71
2018-09-12T08:57:20.322Z,53.64
2018-09-12T08:59:49.506Z,53.89
2018-09-12T09:02:19.001Z,53.97
2018-09-12T09:04:48.754Z,53.60
2018-09-12T09:07:18.208Z,53.11
2018-09-12T09:09:47.438Z,52.79
2018-09-12T09:12:16.542Z,51.78
2018-09-12T09:14:45.738Z,51.87
2018-09-12T09:17:15.400Z,52.58
2018-09-12T09:19:44.619Z,51.52
2018-09-12T09:22:13.756Z,51.86
2018-09-12T09:24:42.921Z,53.91
2018-09-12T09:27:12.211Z,54.65
2018-09-12T09:29:41.383Z,54.38
2018-09-12T09:32:10.735Z,54.96
2018-09-12T09:34:40.058Z,54.16
2018-09-12T09:37:09.238Z,54.77
2018-09-12T09:39:38.305Z,54.42
2018-09-12T09:42:07.806Z,54.97
2018-09-12T09:44:36.843Z,55.99
2018-09-12T09:47:06.163Z,55.25
2018-09-12T09:49:35.418Z,55.03
2018-09-12T09:52:04.370Z,55.05
2018-09-12T09:54:33.619Z,55.10
2018-09-12T09:57:02.900Z,54.46
2018-09-12T09:59:32.110Z,54.21
2018-09-12T10:02:06.463Z,53.48
2018-09-12T10:04:40.712Z,54.75
2018-09-12T10:07:14.760Z,53.70
2018-09-12T10:09:54.390Z,54.34
2018-09-12T10:12:23.676Z,53.53
2018-09-12T10:14:52.781Z,51.79
